createdAt,value
2019-02-18T00:01:53.492Z,7.99
2019-02-18T00:06:57.200Z,7.93
2019-02-18T00:11:59.460Z,7.92
2019-02-18T00:17:03.143Z,7.86
2019-02-18T00:22:05.934Z,7.81
2019-02-18T00:27:08.191Z,7.70
2019-02-18T00:32:10.378Z,7.64
2019-02-18T00:37:12.762Z,7.62
2019-02-18T00:42:15.754Z,7.60
2019-02-18T00:47:18.485Z,7.53
2019-02-18T00:52:21.506Z,7.51
2019-02-18T00:57:23.862Z,7.52
2019-02-18T01:02:26.416Z,7.65
2019-02-18T01:07:34.766Z,7.73
2019-02-18T01:12:33.992Z,7.76
2019-02-18T01:17:36.299Z,7.76
2019-02-18T01:22:38.859Z,7.77
2019-02-18T01:27:41.426Z,7.73
2019-02-18T01:32:44.410Z,7.72
2019-02-18T01:37:46.654Z,7.69
2019-02-18T01:42:48.939Z,7.60
2019-02-18T01:47:51.745Z,7.58
2019-02-18T01:52:54.504Z,7.61
2019-02-18T01:57:56.789Z,7.61
2019-02-18T02:02:59.043Z,7.58
2019-02-18T02:08:02.216Z,7.48
2019-02-18T02:13:30.549Z,7.42
2019-02-18T02:18:34.068Z,7.38
2019-02-18T02:23:36.764Z,7.36
2019-02-18T02:28:39.149Z,7.37
2019-02-18T02:33:41.406Z,7.29
2019-02-18T02:38:43.798Z,7.21
2019-02-18T02:43:46.093Z,7.14
2019-02-18T02:48:48.391Z,7.06
2019-02-18T02:53:51.131Z,7.01
2019-02-18T02:58:53.923Z,6.88
2019-02-18T03:03:56.212Z,6.70
2019-02-18T03:08:59.015Z,6.59
2019-02-18T03:14:01.761Z,6.56
2019-02-18T03:19:04.323Z,6.48
2019-02-18T03:24:07.274Z,6.41
2019-02-18T03:30:33.178Z,6.37
2019-02-18T03:35:35.758Z,6.28
2019-02-18T03:40:38.406Z,6.25
2019-02-18T03:45:41.866Z,6.14
2019-02-18T03:50:44.190Z,6.03
2019-02-18T03:55:46.619Z,5.94
2019-02-18T04:00:48.963Z,5.87
2019-02-18T04:05:51.752Z,5.81
2019-02-18T04:10:54.619Z,5.73
2019-02-18T04:15:57.228Z,5.68
2019-02-18T04:20:59.976Z,5.61
2019-02-18T04:26:02.913Z,5.54
2019-02-18T04:31:05.168Z,5.48
2019-02-18T04:36:07.458Z,5.45
2019-02-18T04:41:10.182Z,5.42
2019-02-18T04:46:13.050Z,5.34
2019-02-18T04:51:16.059Z,5.28
2019-02-18T04:56:18.595Z,5.23
2019-02-18T05:01:21.112Z,5.18
2019-02-18T05:06:25.455Z,5.15
2019-02-18T05:11:28.120Z,5.13
2019-02-18T05:16:30.458Z,5.18
2019-02-18T05:21:32.741Z,5.16
2019-02-18T05:26:35.321Z,5.10
2019-02-18T05:31:38.146Z,5.06
2019-02-18T05:36:40.456Z,5.02
2019-02-18T05:41:43.019Z,5.10
2019-02-18T05:46:46.357Z,5.16
2019-02-18T05:51:48.679Z,5.19
2019-02-18T05:56:51.104Z,5.09
2019-02-18T06:01:53.529Z,4.98
2019-02-18T06:06:55.851Z,4.93
2019-02-18T06:11:58.132Z,4.97
2019-02-18T06:17:02.776Z,4.93
2019-02-18T06:22:04.702Z,4.90
2019-02-18T06:27:07.912Z,4.90
2019-02-18T06:32:10.080Z,4.91
2019-02-18T06:37:12.721Z,4.98
2019-02-18T06:42:15.609Z,4.95
2019-02-18T06:47:21.926Z,4.93
2019-02-18T06:52:24.157Z,4.98
2019-02-18T06:57:59.329Z,4.98
2019-02-18T07:03:07.361Z,5.08
2019-02-18T07:08:25.400Z,5.34
2019-02-18T07:13:27.986Z,5.61
2019-02-18T07:18:30.688Z,5.89
2019-02-18T07:23:33.705Z,6.03
2019-02-18T07:28:36.213Z,6.39
2019-02-18T07:33:38.540Z,6.40
2019-02-18T07:38:40.960Z,6.31
2019-02-18T07:43:43.709Z,6.21
2019-02-18T07:48:46.814Z,6.13
2019-02-18T07:53:49.149Z,6.18
2019-02-18T07:58:51.467Z,6.51
2019-02-18T08:03:54.363Z,7.18
2019-02-18T08:08:57.629Z,7.73
2019-02-18T08:14:00.577Z,8.33
2019-02-18T08:19:02.812Z,8.88
2019-02-18T08:24:09.122Z,9.17
2019-02-18T08:29:13.257Z,9.21
2019-02-18T08:34:16.741Z,9.43
2019-02-18T08:39:20.181Z,9.86
2019-02-18T08:44:23.207Z,10.15
2019-02-18T08:49:25.783Z,10.40
2019-02-18T08:54:28.033Z,10.61
2019-02-18T08:59:30.465Z,11.20
2019-02-18T09:04:32.986Z,11.76
2019-02-18T09:09:35.215Z,11.95
2019-02-18T09:14:37.810Z,12.12
2019-02-18T09:19:40.713Z,12.78
2019-02-18T09:24:49.247Z,12.91
2019-02-18T09:29:52.193Z,13.72
2019-02-18T09:35:01.769Z,13.72
2019-02-18T09:40:02.296Z,15.38
2019-02-18T09:45:06.532Z,15.99
2019-02-18T09:50:09.601Z,16.37
2019-02-18T09:55:12.090Z,16.89
2019-02-18T10:00:15.156Z,17.13
2019-02-18T10:05:18.574Z,17.16
2019-02-18T10:10:21.413Z,17.26
